sensor_id;sensor_type;location;lat;lon;timestamp;pressure;altitude;pressure_sealevel;temperature;humidity
29247;BME280;16272;48.188;9.964;2023-10-19T00:01:55;94432.47;;;7.58;89.98
29247;BME280;16272;48.188;9.964;2023-10-19T00:04:20;94429.13;;;7.64;89.96
29247;BME280;16272;48.188;9.964;2023-10-19T00:06:47;94431.28;;;7.60;90.13
29247;BME280;16272;48.188;9.964;2023-10-19T00:09:14;94447.66;;;7.47;90.69
29247;BME280;16272;48.188;9.964;2023-10-19T00:11:40;94441.53;;;7.55;90.30
29247;BME280;16272;48.188;9.964;2023-10-19T00:14:06;94437.75;;;7.58;89.66
29247;BME280;16272;48.188;9.964;2023-10-19T00:16:40;94435.78;;;7.51;90.28
29247;BME280;16272;48.188;9.964;2023-10-19T00:19:05;94431.44;;;7.67;90.29
29247;BME280;16272;48.188;9.964;2023-10-19T00:21:32;94430.91;;;7.96;87.67
29247;BME280;16272;48.188;9.964;2023-10-19T00:24:13;94433.75;;;7.78;88.94
29247;BME280;16272;48.188;9.964;2023-10-19T00:26:42;94431.09;;;7.86;88.67
29247;BME280;16272;48.188;9.964;2023-10-19T00:29:07;94424.69;;;7.81;89.09
29247;BME280;16272;48.188;9.964;2023-10-19T00:31:51;94420.97;;;7.98;88.01
29247;BME280;16272;48.188;9.964;2023-10-19T00:34:16;94417.38;;;7.91;88.39
29247;BME280;16272;48.188;9.964;2023-10-19T00:36:41;94416.25;;;7.69;89.01
29247;BME280;16272;48.188;9.964;2023-10-19T00:39:07;94417.22;;;7.84;88.25
29247;BME280;16272;48.188;9.964;2023-10-19T00:41:40;94418.22;;;7.83;88.96
29247;BME280;16272;48.188;9.964;2023-10-19T00:44:07;94414.91;;;7.89;88.53
29247;BME280;16272;48.188;9.964;2023-10-19T00:46:36;94415.28;;;7.70;88.47
29247;BME280;16272;48.188;9.964;2023-10-19T00:49:08;94414.22;;;7.96;88.41
29247;BME280;16272;48.188;9.964;2023-10-19T00:51:45;94405.63;;;8.02;88.17
29247;BME280;16272;48.188;9.964;2023-10-19T00:54:29;94419.81;;;8.01;88.09
29247;BME280;16272;48.188;9.964;2023-10-19T00:57:02;94413.56;;;8.02;88.34
29247;BME280;16272;48.188;9.964;2023-10-19T00:59:38;94402.63;;;8.05;88.26
29247;BME280;16272;48.188;9.964;2023-10-19T01:02:15;94399.81;;;8.06;86.52
29247;BME280;16272;48.188;9.964;2023-10-19T01:04:48;94405.66;;;7.77;89.44
29247;BME280;16272;48.188;9.964;2023-10-19T01:07:31;94392.44;;;7.77;90.24
29247;BME280;16272;48.188;9.964;2023-10-19T01:10:00;94392.78;;;7.82;88.97
29247;BME280;16272;48.188;9.964;2023-10-19T01:12:29;94391.91;;;7.90;89.56
29247;BME280;16272;48.188;9.964;2023-10-19T01:17:29;94390.03;;;7.67;89.73
29247;BME280;16272;48.188;9.964;2023-10-19T01:19:56;94389.50;;;7.64;89.93
29247;BME280;16272;48.188;9.964;2023-10-19T01:22:23;94374.16;;;7.51;89.70
29247;BME280;16272;48.188;9.964;2023-10-19T01:24:51;94365.75;;;7.55;90.47
29247;BME280;16272;48.188;9.964;2023-10-19T01:27:18;94360.97;;;7.59;89.85
29247;BME280;16272;48.188;9.964;2023-10-19T01:29:43;94347.94;;;7.49;89.67
29247;BME280;16272;48.188;9.964;2023-10-19T01:32:09;94346.78;;;7.44;91.51
29247;BME280;16272;48.188;9.964;2023-10-19T01:34:35;94337.56;;;7.31;92.63
29247;BME280;16272;48.188;9.964;2023-10-19T01:37:02;94338.63;;;7.70;90.67
29247;BME280;16272;48.188;9.964;2023-10-19T01:39:31;94335.66;;;7.73;89.95
29247;BME280;16272;48.188;9.964;2023-10-19T01:41:57;94328.72;;;7.72;89.80
29247;BME280;16272;48.188;9.964;2023-10-19T01:44:23;94318.06;;;7.88;89.37
29247;BME280;16272;48.188;9.964;2023-10-19T01:46:50;94309.16;;;7.89;89.25
29247;BME280;16272;48.188;9.964;2023-10-19T01:49:15;94289.91;;;7.72;89.34
29247;BME280;16272;48.188;9.964;2023-10-19T01:51:51;94298.47;;;8.14;86.75
29247;BME280;16272;48.188;9.964;2023-10-19T01:54:16;94301.63;;;8.09;86.51
29247;BME280;16272;48.188;9.964;2023-10-19T01:56:43;94308.88;;;8.16;87.50
29247;BME280;16272;48.188;9.964;2023-10-19T01:59:09;94321.19;;;8.00;88.54
29247;BME280;16272;48.188;9.964;2023-10-19T02:01:34;94301.78;;;8.08;88.95
29247;BME280;16272;48.188;9.964;2023-10-19T02:04:04;94306.00;;;7.94;89.16
29247;BME280;16272;48.188;9.964;2023-10-19T02:06:32;94310.41;;;8.10;88.74
29247;BME280;16272;48.188;9.964;2023-10-19T02:09:10;94315.44;;;8.20;86.88
29247;BME280;16272;48.188;9.964;2023-10-19T02:11:53;94310.19;;;8.12;87.22
29247;BME280;16272;48.188;9.964;2023-10-19T02:14:23;94291.22;;;8.08;88.71
29247;BME280;16272;48.188;9.964;2023-10-19T02:16:52;94297.47;;;8.15;87.95
29247;BME280;16272;48.188;9.964;2023-10-19T02:19:18;94300.63;;;8.10;87.98
29247;BME280;16272;48.188;9.964;2023-10-19T02:21:48;94297.56;;;7.99;89.27
29247;BME280;16272;48.188;9.964;2023-10-19T02:24:14;94308.06;;;8.15;87.63
29247;BME280;16272;48.188;9.964;2023-10-19T02:26:41;94302.63;;;7.69;90.67
29247;BME280;16272;48.188;9.964;2023-10-19T02:29:07;94289.72;;;7.82;90.68
29247;BME280;16272;48.188;9.964;2023-10-19T02:31:34;94290.09;;;7.71;90.30
29247;BME280;16272;48.188;9.964;2023-10-19T02:33:59;94285.00;;;8.01;89.18
29247;BME280;16272;48.188;9.964;2023-10-19T02:36:28;94279.69;;;8.01;88.77
29247;BME280;16272;48.188;9.964;2023-10-19T02:38:57;94285.34;;;7.98;88.04
29247;BME280;16272;48.188;9.964;2023-10-19T02:41:26;94293.97;;;7.83;89.76
29247;BME280;16272;48.188;9.964;2023-10-19T02:43:52;94280.13;;;7.81;89.79
29247;BME280;16272;48.188;9.964;2023-10-19T02:46:38;94279.50;;;8.10;87.82
29247;BME280;16272;48.188;9.964;2023-10-19T02:49:08;94280.25;;;8.19;86.85
29247;BME280;16272;48.188;9.964;2023-10-19T02:51:43;94279.78;;;8.16;85.80
29247;BME280;16272;48.188;9.964;2023-10-19T02:54:13;94265.44;;;8.10;86.07
29247;BME280;16272;48.188;9.964;2023-10-19T02:56:43;94260.56;;;7.99;87.26
29247;BME280;16272;48.188;9.964;2023-10-19T02:59:12;94260.25;;;7.85;88.03
29247;BME280;16272;48.188;9.964;2023-10-19T03:01:41;94258.72;;;7.68;88.45
29247;BME280;16272;48.188;9.964;2023-10-19T03:04:10;94251.28;;;7.63;88.17
29247;BME280;16272;48.188;9.964;2023-10-19T03:06:37;94244.91;;;7.49;87.17
29247;BME280;16272;48.188;9.964;2023-10-19T03:09:06;94241.50;;;7.24;87.08
29247;BME280;16272;48.188;9.964;2023-10-19T03:11:45;94239.41;;;7.11;88.90
29247;BME280;16272;48.188;9.964;2023-10-19T03:14:11;94233.47;;;7.09;89.08
29247;BME280;16272;48.188;9.964;2023-10-19T03:16:37;94240.38;;;7.27;87.77
29247;BME280;16272;48.188;9.964;2023-10-19T03:19:03;94239.47;;;7.43;88.04
29247;BME280;16272;48.188;9.964;2023-10-19T03:21:29;94236.72;;;7.28;88.40
29247;BME280;16272;48.188;9.964;2023-10-19T03:23:58;94238.69;;;7.34;88.55
29247;BME280;16272;48.188;9.964;2023-10-19T03:26:29;94235.91;;;7.27;87.45
29247;BME280;16272;48.188;9.964;2023-10-19T03:29:02;94225.88;;;7.14;86.82
29247;BME280;16272;48.188;9.964;2023-10-19T03:31:37;94219.19;;;7.43;86.46
29247;BME280;16272;48.188;9.964;2023-10-19T03:34:11;94222.47;;;7.45;86.61
29247;BME280;16272;48.188;9.964;2023-10-19T03:36:43;94221.63;;;7.05;88.91
29247;BME280;16272;48.188;9.964;2023-10-19T03:39:10;94222.28;;;6.99;88.15
29247;BME280;16272;48.188;9.964;2023-10-19T03:41:39;94228.50;;;7.14;88.70
29247;BME280;16272;48.188;9.964;2023-10-19T03:44:08;94220.81;;;6.88;89.29
29247;BME280;16272;48.188;9.964;2023-10-19T03:46:39;94224.63;;;6.77;89.12
29247;BME280;16272;48.188;9.964;2023-10-19T03:49:18;94226.25;;;6.78;89.54
29247;BME280;16272;48.188;9.964;2023-10-19T03:51:45;94225.31;;;6.55;90.77
29247;BME280;16272;48.188;9.964;2023-10-19T03:54:46;94220.03;;;6.47;91.01
29247;BME280;16272;48.188;9.964;2023-10-19T03:57:14;94223.31;;;6.49;91.53
29247;BME280;16272;48.188;9.964;2023-10-19T03:59:49;94212.28;;;6.53;91.19
29247;BME280;16272;48.188;9.964;2023-10-19T04:02:17;94211.78;;;6.66;90.31
29247;BME280;16272;48.188;9.964;2023-10-19T04:04:46;94205.13;;;6.95;88.26
29247;BME280;16272;48.188;9.964;2023-10-19T04:07:17;94200.13;;;7.08;87.61
29247;BME280;16272;48.188;9.964;2023-10-19T04:09:47;94197.69;;;7.07;87.93
29247;BME280;16272;48.188;9.964;2023-10-19T04:12:30;94196.50;;;7.17;88.67
29247;BME280;16272;48.188;9.964;2023-10-19T04:14:57;94192.69;;;7.20;88.18
29247;BME280;16272;48.188;9.964;2023-10-19T04:17:23;94187.56;;;7.27;87.22
29247;BME280;16272;48.188;9.964;2023-10-19T04:19:49;94190.38;;;7.25;88.12
29247;BME280;16272;48.188;9.964;2023-10-19T04:22:16;94182.25;;;7.35;87.50
29247;BME280;16272;48.188;9.964;2023-10-19T04:24:47;94173.81;;;7.40;87.13
29247;BME280;16272;48.188;9.964;2023-10-19T04:27:12;94178.72;;;7.43;86.30
29247;BME280;16272;48.188;9.964;2023-10-19T04:29:38;94167.34;;;7.42;87.71
29247;BME280;16272;48.188;9.964;2023-10-19T04:32:05;94171.97;;;7.40;86.86
29247;BME280;16272;48.188;9.964;2023-10-19T04:34:32;94176.59;;;7.46;87.58
29247;BME280;16272;48.188;9.964;2023-10-19T04:36:57;94167.50;;;7.41;86.96
29247;BME280;16272;48.188;9.964;2023-10-19T04:39:22;94173.25;;;7.44;87.18
29247;BME280;16272;48.188;9.964;2023-10-19T04:41:49;94180.44;;;7.27;88.73
29247;BME280;16272;48.188;9.964;2023-10-19T04:44:15;94177.72;;;7.44;87.27
29247;BME280;16272;48.188;9.964;2023-10-19T04:46:41;94180.41;;;7.35;88.32
29247;BME280;16272;48.188;9.964;2023-10-19T04:49:06;94168.41;;;7.33;89.61
29247;BME280;16272;48.188;9.964;2023-10-19T04:51:32;94166.81;;;7.47;88.38
29247;BME280;16272;48.188;9.964;2023-10-19T04:53:58;94167.25;;;7.27;89.39
29247;BME280;16272;48.188;9.964;2023-10-19T04:56:24;94173.19;;;7.21;89.23
29247;BME280;16272;48.188;9.964;2023-10-19T04:58:49;94175.69;;;7.14;90.81
29247;BME280;16272;48.188;9.964;2023-10-19T05:01:14;94176.66;;;7.30;91.32
29247;BME280;16272;48.188;9.964;2023-10-19T05:03:40;94179.56;;;7.43;90.51
29247;BME280;16272;48.188;9.964;2023-10-19T05:06:06;94179.19;;;7.54;89.55
29247;BME280;16272;48.188;9.964;2023-10-19T05:08:31;94172.78;;;7.41;89.88
29247;BME280;16272;48.188;9.964;2023-10-19T05:10:58;94170.28;;;7.47;89.98
29247;BME280;16272;48.188;9.964;2023-10-19T05:13:24;94179.78;;;7.65;89.71
29247;BME280;16272;48.188;9.964;2023-10-19T05:15:56;94172.75;;;7.80;89.35
29247;BME280;16272;48.188;9.964;2023-10-19T05:18:25;94176.56;;;7.78;88.57
29247;BME280;16272;48.188;9.964;2023-10-19T05:20:51;94173.88;;;7.86;87.54
29247;BME280;16272;48.188;9.964;2023-10-19T05:23:23;94170.28;;;7.79;87.46
29247;BME280;16272;48.188;9.964;2023-10-19T05:25:52;94168.44;;;7.87;87.87
29247;BME280;16272;48.188;9.964;2023-10-19T05:28:19;94171.81;;;7.73;89.28
29247;BME280;16272;48.188;9.964;2023-10-19T05:30:44;94171.06;;;7.87;88.48
29247;BME280;16272;48.188;9.964;2023-10-19T05:33:10;94162.78;;;7.90;88.51
29247;BME280;16272;48.188;9.964;2023-10-19T05:35:35;94155.59;;;7.76;89.93
29247;BME280;16272;48.188;9.964;2023-10-19T05:38:05;94158.84;;;7.86;89.92
29247;BME280;16272;48.188;9.964;2023-10-19T05:40:31;94156.53;;;8.06;89.40
29247;BME280;16272;48.188;9.964;2023-10-19T05:42:57;94149.41;;;8.15;87.42
29247;BME280;16272;48.188;9.964;2023-10-19T05:45:23;94156.31;;;8.16;87.20
29247;BME280;16272;48.188;9.964;2023-10-19T05:47:49;94151.13;;;8.23;86.89
29247;BME280;16272;48.188;9.964;2023-10-19T05:50:14;94150.22;;;8.16;86.40
29247;BME280;16272;48.188;9.964;2023-10-19T05:52:43;94151.16;;;8.00;88.66
29247;BME280;16272;48.188;9.964;2023-10-19T05:55:11;94150.72;;;8.11;87.85
29247;BME280;16272;48.188;9.964;2023-10-19T05:57:37;94151.19;;;8.15;88.05
29247;BME280;16272;48.188;9.964;2023-10-19T06:00:10;94151.88;;;8.17;86.71
29247;BME280;16272;48.188;9.964;2023-10-19T06:02:44;94144.69;;;8.02;88.55
29247;BME280;16272;48.188;9.964;2023-10-19T06:05:11;94146.88;;;7.99;89.22
29247;BME280;16272;48.188;9.964;2023-10-19T06:07:36;94157.69;;;8.12;89.50
29247;BME280;16272;48.188;9.964;2023-10-19T06:10:02;94156.31;;;8.16;89.38
29247;BME280;16272;48.188;9.964;2023-10-19T06:12:32;94157.38;;;8.30;87.75
29247;BME280;16272;48.188;9.964;2023-10-19T06:14:57;94159.56;;;8.26;87.68
29247;BME280;16272;48.188;9.964;2023-10-19T06:17:22;94155.72;;;8.29;88.38
29247;BME280;16272;48.188;9.964;2023-10-19T06:19:48;94149.41;;;8.15;88.88
29247;BME280;16272;48.188;9.964;2023-10-19T06:22:14;94151.31;;;8.21;88.88
29247;BME280;16272;48.188;9.964;2023-10-19T06:24:41;94148.66;;;8.21;88.62
29247;BME280;16272;48.188;9.964;2023-10-19T06:27:06;94146.03;;;8.21;89.23
29247;BME280;16272;48.188;9.964;2023-10-19T06:29:32;94147.59;;;8.31;88.66
29247;BME280;16272;48.188;9.964;2023-10-19T06:31:57;94145.41;;;8.34;88.79
29247;BME280;16272;48.188;9.964;2023-10-19T06:34:22;94148.81;;;8.28;89.10
29247;BME280;16272;48.188;9.964;2023-10-19T06:36:47;94147.59;;;8.31;89.36
29247;BME280;16272;48.188;9.964;2023-10-19T06:39:13;94140.06;;;8.42;89.56
29247;BME280;16272;48.188;9.964;2023-10-19T06:41:39;94135.78;;;8.41;88.61
29247;BME280;16272;48.188;9.964;2023-10-19T06:44:04;94135.03;;;8.33;89.70
29247;BME280;16272;48.188;9.964;2023-10-19T06:46:31;94132.66;;;8.38;89.37
29247;BME280;16272;48.188;9.964;2023-10-19T06:48:56;94141.88;;;8.42;89.86
29247;BME280;16272;48.188;9.964;2023-10-19T06:51:25;94145.50;;;8.26;90.02
29247;BME280;16272;48.188;9.964;2023-10-19T06:53:52;94138.06;;;8.68;90.48
29247;BME280;16272;48.188;9.964;2023-10-19T06:56:17;94134.03;;;9.01;88.75
29247;BME280;16272;48.188;9.964;2023-10-19T06:58:42;94130.03;;;9.06;88.37
29247;BME280;16272;48.188;9.964;2023-10-19T07:01:08;94131.28;;;9.10;88.69
29247;BME280;16272;48.188;9.964;2023-10-19T07:03:33;94130.66;;;9.08;88.54
29247;BME280;16272;48.188;9.964;2023-10-19T07:05:59;94130.28;;;9.26;89.12
29247;BME280;16272;48.188;9.964;2023-10-19T07:08:25;94135.13;;;9.22;90.44
29247;BME280;16272;48.188;9.964;2023-10-19T07:10:52;94128.91;;;9.15;89.84
29247;BME280;16272;48.188;9.964;2023-10-19T07:13:19;94133.59;;;8.98;91.37
29247;BME280;16272;48.188;9.964;2023-10-19T07:15:46;94121.53;;;9.10;90.15
29247;BME280;16272;48.188;9.964;2023-10-19T07:18:12;94125.22;;;9.46;89.42
29247;BME280;16272;48.188;9.964;2023-10-19T07:20:37;94110.00;;;9.69;89.83
29247;BME280;16272;48.188;9.964;2023-10-19T07:23:04;94105.34;;;9.93;87.99
29247;BME280;16272;48.188;9.964;2023-10-19T07:25:52;94098.00;;;9.95;87.90
29247;BME280;16272;48.188;9.964;2023-10-19T07:28:20;94104.16;;;10.17;87.57
29247;BME280;16272;48.188;9.964;2023-10-19T07:30:46;94099.78;;;10.09;87.47
29247;BME280;16272;48.188;9.964;2023-10-19T07:33:12;94098.47;;;10.20;87.93
29247;BME280;16272;48.188;9.964;2023-10-19T07:35:46;94090.56;;;10.27;87.67
29247;BME280;16272;48.188;9.964;2023-10-19T07:38:15;94103.81;;;10.27;87.83
29247;BME280;16272;48.188;9.964;2023-10-19T07:40:42;94096.50;;;10.07;89.54
29247;BME280;16272;48.188;9.964;2023-10-19T07:43:08;94107.72;;;10.31;88.08
29247;BME280;16272;48.188;9.964;2023-10-19T07:45:34;94096.38;;;9.94;88.61
29247;BME280;16272;48.188;9.964;2023-10-19T07:48:00;94102.06;;;9.91;89.77
29247;BME280;16272;48.188;9.964;2023-10-19T07:50:32;94104.38;;;10.22;90.25
29247;BME280;16272;48.188;9.964;2023-10-19T07:52:58;94096.75;;;10.34;88.37
29247;BME280;16272;48.188;9.964;2023-10-19T07:55:23;94111.16;;;10.25;89.16
29247;BME280;16272;48.188;9.964;2023-10-19T07:57:49;94116.38;;;10.18;89.05
29247;BME280;16272;48.188;9.964;2023-10-19T08:00:16;94108.50;;;10.25;89.71
29247;BME280;16272;48.188;9.964;2023-10-19T08:02:43;94096.03;;;10.47;87.49
29247;BME280;16272;48.188;9.964;2023-10-19T08:05:15;94090.94;;;10.45;87.08
29247;BME280;16272;48.188;9.964;2023-10-19T08:07:41;94107.84;;;10.44;87.74
29247;BME280;16272;48.188;9.964;2023-10-19T08:10:12;94099.66;;;10.39;88.90
29247;BME280;16272;48.188;9.964;2023-10-19T08:12:39;94100.03;;;10.36;89.08
29247;BME280;16272;48.188;9.964;2023-10-19T08:15:12;94110.00;;;10.12;90.28
29247;BME280;16272;48.188;9.964;2023-10-19T08:17:38;94103.25;;;10.32;91.15
29247;BME280;16272;48.188;9.964;2023-10-19T08:20:04;94097.94;;;10.32;90.83
29247;BME280;16272;48.188;9.964;2023-10-19T08:22:34;94108.00;;;9.93;93.25
29247;BME280;16272;48.188;9.964;2023-10-19T08:25:01;94105.34;;;9.93;94.43
29247;BME280;16272;48.188;9.964;2023-10-19T08:27:26;94099.22;;;10.64;91.59
29247;BME280;16272;48.188;9.964;2023-10-19T08:29:51;94091.50;;;11.04;89.45
29247;BME280;16272;48.188;9.964;2023-10-19T08:32:17;94094.09;;;11.32;88.33
29247;BME280;16272;48.188;9.964;2023-10-19T08:34:42;94088.97;;;10.89;89.64
29247;BME280;16272;48.188;9.964;2023-10-19T08:37:07;94088.59;;;10.92;91.54
29247;BME280;16272;48.188;9.964;2023-10-19T08:39:33;94089.69;;;11.53;89.26
29247;BME280;16272;48.188;9.964;2023-10-19T08:42:05;94085.91;;;10.85;90.27
29247;BME280;16272;48.188;9.964;2023-10-19T08:44:31;94084.47;;;10.90;92.85
29247;BME280;16272;48.188;9.964;2023-10-19T08:46:56;94085.47;;;11.24;90.76
29247;BME280;16272;48.188;9.964;2023-10-19T08:49:25;94083.47;;;11.32;90.85
29247;BME280;16272;48.188;9.964;2023-10-19T08:51:52;94079.19;;;12.00;89.55
29247;BME280;16272;48.188;9.964;2023-10-19T08:54:19;94081.22;;;11.98;89.08
29247;BME280;16272;48.188;9.964;2023-10-19T08:56:44;94079.94;;;11.80;89.07
29247;BME280;16272;48.188;9.964;2023-10-19T08:59:13;94089.16;;;11.29;92.33
29247;BME280;16272;48.188;9.964;2023-10-19T09:01:42;94081.19;;;11.29;93.21
29247;BME280;16272;48.188;9.964;2023-10-19T09:04:11;94085.53;;;11.37;93.64
29247;BME280;16272;48.188;9.964;2023-10-19T09:06:37;94083.91;;;11.49;94.04
29247;BME280;16272;48.188;9.964;2023-10-19T09:09:12;94082.69;;;11.45;94.27
29247;BME280;16272;48.188;9.964;2023-10-19T09:11:50;94074.19;;;11.70;94.45
29247;BME280;16272;48.188;9.964;2023-10-19T09:14:31;94078.78;;;12.03;92.28
29247;BME280;16272;48.188;9.964;2023-10-19T09:17:08;94075.59;;;11.66;93.44
29247;BME280;16272;48.188;9.964;2023-10-19T09:19:42;94069.22;;;11.47;96.33
29247;BME280;16272;48.188;9.964;2023-10-19T09:22:08;94076.53;;;11.38;97.77
29247;BME280;16272;48.188;9.964;2023-10-19T09:24:41;94074.19;;;11.70;95.80
29247;BME280;16272;48.188;9.964;2023-10-19T09:27:07;94070.19;;;11.94;94.07
29247;BME280;16272;48.188;9.964;2023-10-19T09:29:33;94052.50;;;11.73;93.87
29247;BME280;16272;48.188;9.964;2023-10-19T09:31:59;94061.09;;;11.75;95.85
29247;BME280;16272;48.188;9.964;2023-10-19T09:34:29;94054.41;;;11.92;94.71
29247;BME280;16272;48.188;9.964;2023-10-19T09:36:58;94053.41;;;12.20;93.21
29247;BME280;16272;48.188;9.964;2023-10-19T09:39:27;94058.75;;;12.27;93.02
29247;BME280;16272;48.188;9.964;2023-10-19T09:41:56;94059.34;;;12.09;92.66
29247;BME280;16272;48.188;9.964;2023-10-19T09:44:24;94054.00;;;12.36;93.32
29247;BME280;16272;48.188;9.964;2023-10-19T09:46:52;94053.41;;;12.40;93.62
29247;BME280;16272;48.188;9.964;2023-10-19T09:49:21;94058.47;;;12.82;90.98
29247;BME280;16272;48.188;9.964;2023-10-19T09:51:47;94055.34;;;12.98;89.26
29247;BME280;16272;48.188;9.964;2023-10-19T09:54:20;94045.91;;;13.02;89.77
29247;BME280;16272;48.188;9.964;2023-10-19T09:56:51;94043.72;;;12.86;90.74
29247;BME280;16272;48.188;9.964;2023-10-19T09:59:34;94041.50;;;12.69;93.21
29247;BME280;16272;48.188;9.964;2023-10-19T10:04:31;94037.78;;;12.71;92.64
29247;BME280;16272;48.188;9.964;2023-10-19T10:06:57;94044.16;;;12.63;95.52
29247;BME280;16272;48.188;9.964;2023-10-19T10:09:25;94040.41;;;12.97;93.91
29247;BME280;16272;48.188;9.964;2023-10-19T10:11:54;94029.50;;;13.05;92.61
29247;BME280;16272;48.188;9.964;2023-10-19T10:14:24;94029.63;;;13.31;91.90
29247;BME280;16272;48.188;9.964;2023-10-19T10:17:02;94017.28;;;13.43;90.70
29247;BME280;16272;48.188;9.964;2023-10-19T10:19:27;94012.97;;;13.42;90.96
29247;BME280;16272;48.188;9.964;2023-10-19T10:22:19;94014.69;;;13.68;89.74
29247;BME280;16272;48.188;9.964;2023-10-19T10:24:47;94008.72;;;13.73;89.17
29247;BME280;16272;48.188;9.964;2023-10-19T10:27:16;94002.22;;;13.94;87.07
29247;BME280;16272;48.188;9.964;2023-10-19T10:29:55;93985.09;;;14.02;86.96
29247;BME280;16272;48.188;9.964;2023-10-19T10:32:50;93982.75;;;13.87;88.18
29247;BME280;16272;48.188;9.964;2023-10-19T10:38:07;93994.25;;;14.12;91.27
29247;BME280;16272;48.188;9.964;2023-10-19T10:40:44;93981.09;;;14.36;89.86
29247;BME280;16272;48.188;9.964;2023-10-19T10:43:09;93966.53;;;14.57;89.64
29247;BME280;16272;48.188;9.964;2023-10-19T10:45:37;93975.91;;;14.85;87.49
29247;BME280;16272;48.188;9.964;2023-10-19T10:48:03;93976.31;;;15.07;87.55
29247;BME280;16272;48.188;9.964;2023-10-19T10:50:29;93967.06;;;15.03;85.59
29247;BME280;16272;48.188;9.964;2023-10-19T10:52:54;93973.44;;;15.02;85.96
29247;BME280;16272;48.188;9.964;2023-10-19T10:55:23;93964.91;;;15.30;85.97
29247;BME280;16272;48.188;9.964;2023-10-19T10:57:50;93955.91;;;15.85;82.62
29247;BME280;16272;48.188;9.964;2023-10-19T11:00:16;93950.84;;;15.95;81.38
29247;BME280;16272;48.188;9.964;2023-10-19T11:02:42;93946.75;;;16.05;81.05
29247;BME280;16272;48.188;9.964;2023-10-19T11:05:20;93951.25;;;15.50;82.54
29247;BME280;16272;48.188;9.964;2023-10-19T11:08:18;93944.38;;;15.54;83.80
29247;BME280;16272;48.188;9.964;2023-10-19T11:10:47;93936.22;;;15.49;83.67
29247;BME280;16272;48.188;9.964;2023-10-19T11:13:14;93939.59;;;15.44;84.16
29247;BME280;16272;48.188;9.964;2023-10-19T11:15:49;93945.91;;;15.50;85.48
29247;BME280;16272;48.188;9.964;2023-10-19T11:18:31;93940.56;;;15.50;85.48
29247;BME280;16272;48.188;9.964;2023-10-19T11:20:58;93936.56;;;15.41;85.12
29247;BME280;16272;48.188;9.964;2023-10-19T11:23:37;93942.69;;;15.72;84.42
29247;BME280;16272;48.188;9.964;2023-10-19T11:26:03;93951.00;;;15.82;83.37
29247;BME280;16272;48.188;9.964;2023-10-19T11:28:30;93955.59;;;16.05;84.32
29247;BME280;16272;48.188;9.964;2023-10-19T11:31:14;93952.34;;;16.15;83.85
29247;BME280;16272;48.188;9.964;2023-10-19T11:33:44;93946.84;;;15.86;85.37
29247;BME280;16272;48.188;9.964;2023-10-19T11:36:10;93950.34;;;15.98;85.23
29247;BME280;16272;48.188;9.964;2023-10-19T11:38:43;93940.47;;;15.99;84.35
29247;BME280;16272;48.188;9.964;2023-10-19T11:41:10;93941.66;;;16.27;83.72
29247;BME280;16272;48.188;9.964;2023-10-19T11:43:35;93937.16;;;15.85;83.08
29247;BME280;16272;48.188;9.964;2023-10-19T11:46:01;93944.09;;;16.28;86.01
29247;BME280;16272;48.188;9.964;2023-10-19T11:48:29;93928.47;;;16.49;83.83
29247;BME280;16272;48.188;9.964;2023-10-19T11:50:56;93929.41;;;16.66;83.78
29247;BME280;16272;48.188;9.964;2023-10-19T11:53:22;93923.56;;;16.69;82.62
29247;BME280;16272;48.188;9.964;2023-10-19T11:55:47;93927.03;;;16.82;82.82
29247;BME280;16272;48.188;9.964;2023-10-19T11:58:14;93922.38;;;17.58;78.99
29247;BME280;16272;48.188;9.964;2023-10-19T12:00:40;93921.09;;;18.24;79.38
29247;BME280;16272;48.188;9.964;2023-10-19T12:03:06;93914.03;;;18.79;76.38
29247;BME280;16272;48.188;9.964;2023-10-19T12:05:32;93910.78;;;18.54;76.27
29247;BME280;16272;48.188;9.964;2023-10-19T12:08:02;93908.28;;;18.70;75.93
29247;BME280;16272;48.188;9.964;2023-10-19T12:10:27;93907.69;;;19.07;74.17
29247;BME280;16272;48.188;9.964;2023-10-19T12:13:01;93899.06;;;19.05;72.12
29247;BME280;16272;48.188;9.964;2023-10-19T12:15:26;93890.63;;;18.18;74.86
29247;BME280;16272;48.188;9.964;2023-10-19T12:17:52;93880.31;;;17.64;74.59
29247;BME280;16272;48.188;9.964;2023-10-19T12:20:19;93881.47;;;18.53;72.80
29247;BME280;16272;48.188;9.964;2023-10-19T12:22:47;93882.94;;;18.44;74.43
29247;BME280;16272;48.188;9.964;2023-10-19T12:25:13;93877.00;;;18.42;73.59
29247;BME280;16272;48.188;9.964;2023-10-19T12:27:38;93872.22;;;18.27;74.26
29247;BME280;16272;48.188;9.964;2023-10-19T12:30:04;93878.22;;;18.34;73.24
29247;BME280;16272;48.188;9.964;2023-10-19T12:32:42;93889.31;;;18.99;75.58
29247;BME280;16272;48.188;9.964;2023-10-19T12:35:07;93893.63;;;19.49;76.81
29247;BME280;16272;48.188;9.964;2023-10-19T12:37:37;93884.31;;;18.85;76.47
29247;BME280;16272;48.188;9.964;2023-10-19T12:40:08;93885.88;;;19.03;73.97
29247;BME280;16272;48.188;9.964;2023-10-19T12:42:51;93879.50;;;19.09;76.34
29247;BME280;16272;48.188;9.964;2023-10-19T12:45:17;93873.56;;;18.85;74.69
29247;BME280;16272;48.188;9.964;2023-10-19T12:47:44;93866.19;;;18.59;76.00
29247;BME280;16272;48.188;9.964;2023-10-19T12:50:10;93863.88;;;18.45;76.29
29247;BME280;16272;48.188;9.964;2023-10-19T12:52:38;93872.81;;;17.95;77.75
29247;BME280;16272;48.188;9.964;2023-10-19T12:55:06;93858.50;;;18.45;78.23
29247;BME280;16272;48.188;9.964;2023-10-19T12:57:32;93867.41;;;18.29;75.63
29247;BME280;16272;48.188;9.964;2023-10-19T12:59:58;93865.94;;;18.21;78.02
29247;BME280;16272;48.188;9.964;2023-10-19T13:02:23;93867.97;;;18.31;76.75
29247;BME280;16272;48.188;9.964;2023-10-19T13:04:49;93857.31;;;17.85;77.37
29247;BME280;16272;48.188;9.964;2023-10-19T13:07:14;93854.47;;;18.26;77.63
29247;BME280;16272;48.188;9.964;2023-10-19T13:09:40;93845.19;;;18.16;78.72
29247;BME280;16272;48.188;9.964;2023-10-19T13:12:05;93848.72;;;18.00;80.33
29247;BME280;16272;48.188;9.964;2023-10-19T13:14:32;93845.69;;;17.79;81.73
29247;BME280;16272;48.188;9.964;2023-10-19T13:16:59;93855.72;;;17.84;81.21
29247;BME280;16272;48.188;9.964;2023-10-19T13:19:24;93854.97;;;17.72;81.68
29247;BME280;16272;48.188;9.964;2023-10-19T13:21:51;93853.97;;;17.61;81.03
29247;BME280;16272;48.188;9.964;2023-10-19T13:24:17;93848.47;;;17.68;80.87